Map

Track Data

SID SEASON NUMBER BASIN SUBBASIN NAME ISO_TIME NATURE LAT LON WMO_WIND WMO_PRES WMO_AGENCY TRACK_TYPE DIST2LAND LANDFALL IFLAG USA_AGENCY USA_ATCF_ID USA_LAT USA_LON USA_RECORD USA_STATUS USA_WIND USA_PRES USA_SSHS USA_R34_NE USA_R34_SE USA_R34_SW USA_R34_NW USA_R50_NE USA_R50_SE USA_R50_SW USA_R50_NW USA_R64_NE USA_R64_SE USA_R64_SW USA_R64_NW USA_POCI USA_ROCI USA_RMW USA_EYE TOKYO_LAT TOKYO_LON TOKYO_GRADE TOKYO_WIND TOKYO_PRES TOKYO_R50_DIR TOKYO_R50_LONG TOKYO_R50_SHORT TOKYO_R30_DIR TOKYO_R30_LONG TOKYO_R30_SHORT TOKYO_LAND CMA_LAT CMA_LON CMA_CAT CMA_WIND CMA_PRES HKO_LAT HKO_LON HKO_CAT HKO_WIND HKO_PRES NEWDELHI_LAT NEWDELHI_LON NEWDELHI_GRADE NEWDELHI_WIND NEWDELHI_PRES NEWDELHI_CI NEWDELHI_DP NEWDELHI_POCI REUNION_LAT REUNION_LON REUNION_TYPE REUNION_WIND REUNION_PRES REUNION_TNUM REUNION_CI REUNION_RMW REUNION_R34_NE REUNION_R34_SE REUNION_R34_SW REUNION_R34_NW REUNION_R50_NE REUNION_R50_SE REUNION_R50_SW REUNION_R50_NW REUNION_R64_NE REUNION_R64_SE REUNION_R64_SW REUNION_R64_NW BOM_LAT BOM_LON BOM_TYPE BOM_WIND BOM_PRES BOM_TNUM BOM_CI BOM_RMW BOM_R34_NE BOM_R34_SE BOM_R34_SW BOM_R34_NW BOM_R50_NE BOM_R50_SE BOM_R50_SW BOM_R50_NW BOM_R64_NE BOM_R64_SE BOM_R64_SW BOM_R64_NW BOM_ROCI BOM_POCI BOM_EYE BOM_POS_METHOD BOM_PRES_METHOD NADI_LAT NADI_LON NADI_CAT NADI_WIND NADI_PRES WELLINGTON_LAT WELLINGTON_LON WELLINGTON_WIND WELLINGTON_PRES DS824_LAT DS824_LON DS824_STAGE DS824_WIND DS824_PRES TD9636_LAT TD9636_LON TD9636_STAGE TD9636_WIND TD9636_PRES TD9635_LAT TD9635_LON TD9635_WIND TD9635_PRES TD9635_ROCI NEUMANN_LAT NEUMANN_LON NEUMANN_CLASS NEUMANN_WIND NEUMANN_PRES MLC_LAT MLC_LON MLC_CLASS MLC_WIND MLC_PRES USA_GUST BOM_GUST BOM_GUST_PER REUNION_GUST REUNION_GUST_PER USA_SEAHGT USA_SEARAD_NE USA_SEARAD_SE USA_SEARAD_SW USA_SEARAD_NW STORM_SPEED STORM_DIR
1883080S10093 1883 10 SI WA NOT_NAMED 1883-03-21 06:00:00 NR -10.1000 93.0000 spur-split 1145 1145 _____O________ -1 -10.1000 93.0000 99 9.90000 2 173
1883080S10093 1883 10 SI WA NOT_NAMED 1883-03-21 09:00:00 NR -10.2111 93.0021 spur-split 1154 1154 _____P________ -1 -10.2111 93.0021 99 2 0
1883080S10093 1883 10 SI WA NOT_NAMED 1883-03-21 12:00:00 NR -10.3282 93.0064 spur-split 1163 1163 _____P________ -1 -10.3282 93.0064 99 2 176
1883080S10093 1883 10 SI WA NOT_NAMED 1883-03-21 15:00:00 NR -10.4575 93.0150 spur-split 1182 1182 _____P________ -1 -10.4575 93.0150 99 3 179
1883080S10093 1883 10 SI WA NOT_NAMED 1883-03-21 18:00:00 NR -10.6051 93.0302 spur-split 1191 1191 _____P________ -1 -10.6051 93.0302 99 3 174
1883080S10093 1883 10 SI WA NOT_NAMED 1883-03-21 21:00:00 NR -10.7770 93.0540 spur-split 1204 1204 _____P________ -1 -10.7770 93.0540 99 4 171
1883080S10093 1883 10 SI WA NOT_NAMED 1883-03-22 00:00:00 NR -10.9794 93.0888 spur-split 1223 1223 _____P________ -1 -10.9794 93.0888 99 5 170
1883080S10093 1883 10 SI WA NOT_NAMED 1883-03-22 03:00:00 NR -11.2184 93.1367 spur-split 1242 1242 _____P________ -1 -11.2184 93.1367 99 5 168
1883080S10093 1883 10 SI WA NOT_NAMED 1883-03-22 06:00:00 NR -11.5000 93.2000 spur-split 1265 1265 _____O________ -1 -11.5000 93.2000 99 9.90000 6 167
1883080S10093 1883 10 SI WA NOT_NAMED 1883-03-22 09:00:00 NR -11.8280 93.2805 spur-split 1289 1289 _____P________ -1 -11.8280 93.2805 99 7 166
1883080S10093 1883 10 SI WA NOT_NAMED 1883-03-22 12:00:00 NR -12.1966 93.3781 spur-split 1323 1323 _____P________ -1 -12.1966 93.3781 99 8 165
1883080S10093 1883 10 SI WA NOT_NAMED 1883-03-22 15:00:00 NR -12.5975 93.4925 spur-split 1358 1358 _____P________ -1 -12.5975 93.4925 99 9 164
1883080S10093 1883 10 SI WA NOT_NAMED 1883-03-22 18:00:00 NR -13.0225 93.6232 spur-split 1389 1389 _____P________ -1 -13.0225 93.6232 99 9 163
1883080S10093 1883 10 SI WA NOT_NAMED 1883-03-22 21:00:00 NR -13.4635 93.7697 spur-split 1415 1415 _____P________ -1 -13.4635 93.7697 99 9 161
1883080S10093 1883 10 SI WA NOT_NAMED 1883-03-23 00:00:00 NR -13.9122 93.9317 spur-split 1442 1442 _____P________ -1 -13.9122 93.9317 99 10 160
1883080S10093 1883 10 SI WA NOT_NAMED 1883-03-23 03:00:00 NR -14.3604 94.1086 spur-split 1469 1469 _____P________ -1 -14.3604 94.1086 99 10 158
1883080S10093 1883 10 SI WA NOT_NAMED 1883-03-23 06:00:00 NR -14.8000 94.3000 spur-split 1489 1487 _____O________ -1 -14.8000 94.3000 99 9.90000 9 157
1883080S10093 1883 10 SI WA NOT_NAMED 1883-03-23 09:00:00 NR -15.2175 94.4795 spur-split 1499 1499 _____P________ -1 -15.2175 94.4795 99 9 157
1883080S10093 1883 10 SI WA NOT_NAMED 1883-03-23 12:00:00 NR -15.6333 94.6732 spur-split 1510 1510 _____P________ -1 -15.6333 94.6732 99 9 155
1883080S10093 1883 10 SI WA NOT_NAMED 1883-03-23 15:00:00 NR -16.0440 94.8824 spur-split 1523 1523 _____P________ -1 -16.0440 94.8824 99 9 153
1883080S10093 1883 10 SI WA NOT_NAMED 1883-03-23 18:00:00 NR -16.4462 95.1082 spur-split 1537 1537 _____P________ -1 -16.4462 95.1082 99 9 150
1883080S10093 1883 10 SI WA NOT_NAMED 1883-03-23 21:00:00 NR -16.8364 95.3517 spur-split 1545 1545 _____P________ -1 -16.8364 95.3517 99 9 148
1883080S10093 1883 10 SI WA NOT_NAMED 1883-03-24 00:00:00 NR -17.2110 95.6141 spur-split 1563 1563 _____P________ -1 -17.2110 95.6141 99 9 145
1883080S10093 1883 10 SI WA NOT_NAMED 1883-03-24 03:00:00 NR -17.5668 95.8965 spur-split 1575 1568 _____P________ -1 -17.5668 95.8965 99 9 141
1883080S10093 1883 10 SI WA NOT_NAMED 1883-03-24 06:00:00 NR -17.9000 96.2000 spur-split 1580 1578 _____O________ -1 -17.9000 96.2000 99 9.90000 9 137
1883080S10093 1883 10 SI WA NOT_NAMED 1883-03-24 09:00:00 NR -18.2366 96.5610 spur-split 1580 1580 _____P________ -1 -18.2366 96.5610 99 10 133
1883080S10093 1883 10 SI WA NOT_NAMED 1883-03-24 12:00:00 NR -18.5542 96.9499 spur-split 1598 1585 _____P________ -1 -18.5542 96.9499 99 10 129
1883080S10093 1883 10 SI WA NOT_NAMED 1883-03-24 15:00:00 NR -18.8498 97.3550 spur-split 1586 1586 _____P________ -1 -18.8498 97.3550 99 10 126
1883080S10093 1883 10 SI WA NOT_NAMED 1883-03-24 18:00:00 NR -19.1206 97.7642 spur-split 1592 1591 _____P________ -1 -19.1206 97.7642 99 9 124
1883080S10093 1883 10 SI WA NOT_NAMED 1883-03-24 21:00:00 NR -19.3636 98.1655 spur-split 1600 1595 _____P________ -1 -19.3636 98.1655 99 9 122
1883080S10093 1883 10 SI WA NOT_NAMED 1883-03-25 00:00:00 NR -19.5763 98.5468 spur-split 1600 1557 _____P________ -1 -19.5763 98.5468 99 8 120
1883080S10093 1883 10 SI WA NOT_NAMED 1883-03-25 03:00:00 NR -19.7559 98.8957 spur-split 1554 1521 _____P________ -1 -19.7559 98.8957 99 7 118
1883080S10093 1883 10 SI WA NOT_NAMED 1883-03-25 06:00:00 NR -19.9000 99.2000 spur-split 1521 1498 _____O________ -1 -19.9000 99.2000 99 9.90000 6 116
1883080S10093 1883 10 SI WA NOT_NAMED 1883-03-25 09:00:00 NR -20.0073 99.4505 spur-split 1488 1475 _____P________ -1 -20.0073 99.4505 99 5 113
1883080S10093 1883 10 SI WA NOT_NAMED 1883-03-25 12:00:00 NR -20.0816 99.6510 spur-split 1465 1455 _____P________ -1 -20.0816 99.6510 99 4 110
1883080S10093 1883 10 SI WA NOT_NAMED 1883-03-25 15:00:00 NR -20.1276 99.8084 spur-split 1455 1445 _____P________ -1 -20.1276 99.8084 99 3 105
1883080S10093 1883 10 SI WA NOT_NAMED 1883-03-25 18:00:00 NR -20.1501 99.9300 spur-split 1442 1432 _____P________ -1 -20.1501 99.9300 99 2 98
1883080S10093 1883 10 SI WA NOT_NAMED 1883-03-25 21:00:00 NR -20.1539 100.023 spur-split 1432 1422 _____P________ -1 -20.1539 100.023 99 2 88
1883080S10093 1883 10 SI WA NOT_NAMED 1883-03-26 00:00:00 NR -20.1437 100.094 spur-split 1424 1424 _____P________ -1 -20.1437 100.094 99 1 76
1883080S10093 1883 10 SI WA NOT_NAMED 1883-03-26 03:00:00 NR -20.1242 100.151 spur-split 1414 1414 _____P________ -1 -20.1242 100.151 99 1 65
1883080S10093 1883 10 SI WA NOT_NAMED 1883-03-26 06:00:00 NR -20.1000 100.200 spur-split 1414 _____O________ -1 -20.1000 100.200 99 9.90000 1 52

About IBTrACS Database

This database is a web-friendly format of International Best Track Archive for Climate Stewardship (IBTrACS), a global best track data archive curated by NOAA dating back to 1842.

Updated: 2021-12-03